createdAt,value
2023-01-25T00:01:49.334Z,6.87
2023-01-25T00:04:17.738Z,9.30
2023-01-25T00:06:45.958Z,7.17
2023-01-25T00:09:15.054Z,9.67
2023-01-25T00:11:44.347Z,10.23
2023-01-25T00:14:13.349Z,8.13
2023-01-25T00:16:42.184Z,7.33
2023-01-25T00:19:12.634Z,9.23
2023-01-25T00:21:41.163Z,7.27
2023-01-25T00:24:11.781Z,9.17
2023-01-25T00:26:40.613Z,8.97
2023-01-25T00:29:08.895Z,7.90
2023-01-25T00:31:48.372Z,9.80
2023-01-25T00:34:46.758Z,9.87
2023-01-25T00:37:25.734Z,13.13
2023-01-25T00:39:54.140Z,13.00
2023-01-25T00:42:22.786Z,15.60
2023-01-25T00:44:51.306Z,11.70
2023-01-25T00:47:19.881Z,10.27
2023-01-25T00:49:50.389Z,9.50
2023-01-25T00:52:18.637Z,12.60
2023-01-25T00:54:46.855Z,11.60
2023-01-25T00:57:15.750Z,11.60
2023-01-25T00:59:44.849Z,9.57
2023-01-25T01:02:13.788Z,8.63
2023-01-25T01:04:42.182Z,9.70
2023-01-25T01:07:13.613Z,7.53
2023-01-25T01:09:41.911Z,8.40
2023-01-25T01:12:10.191Z,8.87
2023-01-25T01:14:38.767Z,9.33
2023-01-25T01:17:07.032Z,7.73
2023-01-25T01:19:35.499Z,8.93
2023-01-25T01:22:03.726Z,7.10
2023-01-25T01:24:33.449Z,7.80
2023-01-25T01:27:01.667Z,13.30
2023-01-25T01:29:29.894Z,14.83
2023-01-25T01:31:58.227Z,11.27
2023-01-25T01:34:27.352Z,12.53
2023-01-25T01:36:55.558Z,15.87
2023-01-25T01:39:24.057Z,14.70
2023-01-25T01:41:53.738Z,17.90
2023-01-25T01:44:24.308Z,15.03
2023-01-25T01:46:56.309Z,15.90
2023-01-25T01:49:27.713Z,10.67
2023-01-25T01:52:02.045Z,14.30
2023-01-25T01:54:35.400Z,12.13
2023-01-25T01:57:08.842Z,12.50
2023-01-25T01:59:42.925Z,12.23
2023-01-25T02:02:11.235Z,10.77
2023-01-25T02:04:39.677Z,9.10
2023-01-25T02:07:14.661Z,7.90
2023-01-25T02:09:44.576Z,13.57
2023-01-25T02:12:15.256Z,10.37
2023-01-25T02:14:49.402Z,11.00
2023-01-25T02:17:19.070Z,10.43
2023-01-25T02:19:55.103Z,8.40
2023-01-25T02:22:33.658Z,9.60
2023-01-25T02:25:07.436Z,9.47
2023-01-25T02:27:40.556Z,10.47
2023-01-25T02:30:10.672Z,12.47
2023-01-25T02:32:39.068Z,9.93
2023-01-25T02:35:08.524Z,10.90
2023-01-25T02:37:37.103Z,10.03
2023-01-25T02:40:07.684Z,10.50
2023-01-25T02:42:36.330Z,12.33
2023-01-25T02:45:07.473Z,9.47
2023-01-25T02:47:35.930Z,8.83
2023-01-25T02:50:04.620Z,7.40
2023-01-25T02:52:32.856Z,8.47
2023-01-25T02:55:01.109Z,7.97
2023-01-25T02:57:30.741Z,11.67
2023-01-25T02:59:59.101Z,10.10
2023-01-25T03:02:27.382Z,8.43
2023-01-25T03:04:55.613Z,11.37
2023-01-25T03:07:23.858Z,9.80
2023-01-25T03:09:52.088Z,10.17
2023-01-25T03:12:20.293Z,10.03
2023-01-25T03:14:49.937Z,9.73
2023-01-25T03:17:18.136Z,9.97
2023-01-25T03:19:46.387Z,14.30
2023-01-25T03:22:14.686Z,13.10
2023-01-25T03:24:42.921Z,13.03
2023-01-25T03:27:14.587Z,13.33
2023-01-25T03:29:43.030Z,17.53
2023-01-25T03:32:13.212Z,14.00
2023-01-25T03:34:41.486Z,16.17
2023-01-25T03:37:09.711Z,14.53
2023-01-25T03:39:37.943Z,12.27
2023-01-25T03:42:06.438Z,17.47
2023-01-25T03:44:34.721Z,20.00
2023-01-25T03:47:03.082Z,13.57
2023-01-25T03:49:32.843Z,15.90
2023-01-25T03:52:01.103Z,15.43
2023-01-25T03:54:29.342Z,12.23
2023-01-25T03:56:57.536Z,12.63
2023-01-25T03:59:26.034Z,12.90
2023-01-25T04:01:54.420Z,11.03
2023-01-25T04:04:22.777Z,9.93
2023-01-25T04:06:52.452Z,9.07
2023-01-25T04:09:20.770Z,8.40
2023-01-25T04:11:51.192Z,9.87
2023-01-25T04:14:31.806Z,9.87
2023-01-25T04:17:05.547Z,8.43
2023-01-25T04:19:33.851Z,9.73
2023-01-25T04:22:03.480Z,9.43
2023-01-25T04:24:31.775Z,7.67
2023-01-25T04:26:59.998Z,11.67
2023-01-25T04:29:40.025Z,11.17
2023-01-25T04:32:09.635Z,8.17
2023-01-25T04:34:38.005Z,10.67
2023-01-25T04:37:07.726Z,9.70
2023-01-25T04:39:35.962Z,11.20
2023-01-25T04:42:04.257Z,8.93
2023-01-25T04:44:32.614Z,10.33
2023-01-25T04:47:00.822Z,10.23
2023-01-25T04:49:29.145Z,11.90
2023-01-25T04:51:57.450Z,13.37
2023-01-25T04:54:27.178Z,12.87
2023-01-25T04:56:55.419Z,10.37
2023-01-25T04:59:23.789Z,9.90
2023-01-25T05:01:52.091Z,11.10
2023-01-25T05:04:20.463Z,14.20
2023-01-25T05:06:48.671Z,11.57
2023-01-25T05:09:17.769Z,10.97
2023-01-25T05:11:47.467Z,10.13
2023-01-25T05:14:15.717Z,20.00
2023-01-25T05:16:43.979Z,11.27
2023-01-25T05:19:12.448Z,9.77
2023-01-25T05:21:57.999Z,10.50
2023-01-25T05:24:26.789Z,7.90
2023-01-25T05:27:01.263Z,11.87
2023-01-25T05:29:29.585Z,9.30
2023-01-25T05:31:58.166Z,9.10
2023-01-25T05:34:27.323Z,7.43
2023-01-25T05:36:55.706Z,8.60
2023-01-25T05:39:23.941Z,8.47
2023-01-25T05:41:52.381Z,6.93
2023-01-25T05:44:22.217Z,11.70
2023-01-25T05:46:50.825Z,11.43
2023-01-25T05:49:19.604Z,11.13
2023-01-25T05:51:49.128Z,12.03
2023-01-25T05:54:19.530Z,8.57
2023-01-25T05:56:50.239Z,12.33
2023-01-25T05:59:18.567Z,12.87
2023-01-25T06:01:48.191Z,14.20
2023-01-25T06:04:17.711Z,11.03
2023-01-25T06:06:45.959Z,10.37
2023-01-25T06:09:14.615Z,11.20
2023-01-25T06:11:45.769Z,15.90
2023-01-25T06:14:14.245Z,11.83
2023-01-25T06:16:42.763Z,13.67
2023-01-25T06:19:14.292Z,14.33
2023-01-25T06:21:42.598Z,13.93
2023-01-25T06:24:11.027Z,22.53
2023-01-25T06:26:39.320Z,10.37
2023-01-25T06:29:08.002Z,10.90
2023-01-25T06:31:36.503Z,8.40
2023-01-25T06:34:06.588Z,9.17
2023-01-25T06:36:36.392Z,8.77
2023-01-25T06:39:05.195Z,8.93
2023-01-25T06:41:33.446Z,6.57
2023-01-25T06:44:01.751Z,6.83
2023-01-25T06:46:32.815Z,6.50
2023-01-25T06:49:01.139Z,6.87
2023-01-25T06:51:29.419Z,7.13
2023-01-25T06:54:03.067Z,5.17
2023-01-25T06:56:32.758Z,6.80
2023-01-25T06:59:01.070Z,7.17
2023-01-25T07:01:30.642Z,7.40
2023-01-25T07:04:00.444Z,7.57
2023-01-25T07:06:34.280Z,8.33
2023-01-25T07:09:09.429Z,7.17
2023-01-25T07:11:38.166Z,8.03
2023-01-25T07:14:07.210Z,6.80
2023-01-25T07:16:38.652Z,6.10
2023-01-25T07:19:07.761Z,9.73
2023-01-25T07:21:36.148Z,8.10
2023-01-25T07:24:06.988Z,6.70
2023-01-25T07:26:35.481Z,7.30
2023-01-25T07:29:03.730Z,8.77
2023-01-25T07:31:32.068Z,7.50
2023-01-25T07:34:00.524Z,6.70
2023-01-25T07:36:28.846Z,6.47
2023-01-25T07:38:58.317Z,8.33
2023-01-25T07:41:28.353Z,6.57
2023-01-25T07:43:56.933Z,9.07
2023-01-25T07:46:25.289Z,10.87
2023-01-25T07:48:55.103Z,23.10
2023-01-25T07:51:24.344Z,26.57
2023-01-25T07:53:54.588Z,11.77
2023-01-25T07:56:24.025Z,33.53
2023-01-25T07:58:58.191Z,37.50
2023-01-25T08:01:28.335Z,22.17
2023-01-25T08:03:57.616Z,11.17
2023-01-25T08:06:30.741Z,14.27
2023-01-25T08:09:00.516Z,14.33
2023-01-25T08:11:30.438Z,11.60
2023-01-25T08:14:02.113Z,11.23
2023-01-25T08:16:32.116Z,12.70
2023-01-25T08:19:02.249Z,11.57
2023-01-25T08:21:32.862Z,13.13
2023-01-25T08:24:02.442Z,10.20
2023-01-25T08:26:30.732Z,12.73
2023-01-25T08:29:00.423Z,18.00
2023-01-25T08:31:30.376Z,13.23
2023-01-25T08:33:59.313Z,15.30
2023-01-25T08:36:28.956Z,12.00
2023-01-25T08:38:58.648Z,14.40
2023-01-25T08:41:28.142Z,14.23
2023-01-25T08:43:57.449Z,19.05
2023-01-25T08:46:31.281Z,15.07
2023-01-25T08:49:02.196Z,14.20
2023-01-25T08:51:31.704Z,12.77
2023-01-25T08:54:04.490Z,14.17
2023-01-25T08:56:32.843Z,17.90
2023-01-25T08:59:01.070Z,16.53
2023-01-25T09:01:30.828Z,13.80
2023-01-25T09:03:59.536Z,12.90
2023-01-25T09:06:27.830Z,16.43
2023-01-25T09:08:56.318Z,11.47
2023-01-25T09:11:24.669Z,13.50
2023-01-25T09:13:52.992Z,13.57
2023-01-25T09:16:28.957Z,16.27
2023-01-25T09:19:00.302Z,12.07
2023-01-25T09:21:29.253Z,12.77
2023-01-25T09:24:06.080Z,14.23
2023-01-25T09:26:36.916Z,17.17
2023-01-25T09:29:05.557Z,17.07
2023-01-25T09:31:33.996Z,20.00
2023-01-25T09:34:03.820Z,12.67
2023-01-25T09:36:32.059Z,14.97
2023-01-25T09:39:00.325Z,9.77
2023-01-25T09:42:15.157Z,11.67
2023-01-25T09:45:13.785Z,15.47
2023-01-25T09:47:50.158Z,10.50
2023-01-25T09:50:36.643Z,17.00
2023-01-25T09:53:21.964Z,13.83
2023-01-25T09:55:54.270Z,9.77
2023-01-25T09:58:27.175Z,15.07
2023-01-25T10:01:13.955Z,20.17
2023-01-25T10:03:49.403Z,19.97
2023-01-25T10:06:20.626Z,18.27
2023-01-25T10:08:58.860Z,14.83
2023-01-25T10:11:29.812Z,10.43
2023-01-25T10:13:58.852Z,12.97
2023-01-25T10:16:32.931Z,12.27
2023-01-25T10:19:11.701Z,15.47
2023-01-25T10:21:44.846Z,14.63
2023-01-25T10:24:44.916Z,15.43
2023-01-25T10:27:26.231Z,12.43
2023-01-25T10:29:58.315Z,11.97
2023-01-25T10:32:32.036Z,10.67
2023-01-25T10:35:22.763Z,10.50
2023-01-25T10:38:03.131Z,12.70
2023-01-25T10:40:40.408Z,11.73
2023-01-25T10:43:17.656Z,12.23
2023-01-25T10:45:45.918Z,12.73
2023-01-25T10:48:19.164Z,12.23
2023-01-25T10:50:50.821Z,11.97
2023-01-25T10:53:30.524Z,12.10
2023-01-25T10:56:07.285Z,9.50
2023-01-25T10:58:37.848Z,10.90
2023-01-25T11:01:08.469Z,10.03
2023-01-25T11:03:38.457Z,11.83
2023-01-25T11:06:07.406Z,10.50
2023-01-25T11:08:38.785Z,12.63
2023-01-25T11:11:25.909Z,16.97
2023-01-25T11:13:56.137Z,22.03
2023-01-25T11:16:34.206Z,12.57
2023-01-25T11:19:04.060Z,11.10
2023-01-25T11:21:34.958Z,12.30
2023-01-25T11:24:18.048Z,11.97
2023-01-25T11:26:47.180Z,11.43
2023-01-25T11:29:18.645Z,13.83
2023-01-25T11:31:49.039Z,13.20
2023-01-25T11:34:19.220Z,12.17
2023-01-25T11:37:09.584Z,14.00
2023-01-25T11:39:49.740Z,11.67
2023-01-25T11:42:28.848Z,15.17
2023-01-25T11:45:38.874Z,11.17
2023-01-25T11:48:22.559Z,15.40
2023-01-25T11:50:56.077Z,15.07
2023-01-25T11:53:52.443Z,15.37
2023-01-25T11:56:36.487Z,23.07
2023-01-25T11:59:17.916Z,14.63
2023-01-25T12:02:04.816Z,13.10
2023-01-25T12:04:51.759Z,16.13
2023-01-25T12:07:31.558Z,16.07
2023-01-25T12:10:23.992Z,14.20
2023-01-25T12:13:02.015Z,11.73
2023-01-25T12:15:44.250Z,14.00
2023-01-25T12:18:43.910Z,15.53
2023-01-25T12:21:31.253Z,11.83
2023-01-25T12:24:09.739Z,13.17
2023-01-25T12:26:47.710Z,12.20
2023-01-25T12:29:26.200Z,15.23
2023-01-25T12:31:59.789Z,13.20
2023-01-25T12:34:35.097Z,14.20
2023-01-25T12:37:12.344Z,14.93
2023-01-25T12:39:46.859Z,14.83
2023-01-25T12:42:21.345Z,17.13
2023-01-25T12:44:56.018Z,14.37
2023-01-25T12:47:33.059Z,13.40
2023-01-25T12:50:04.581Z,12.53
2023-01-25T12:52:36.160Z,13.90
2023-01-25T12:55:07.901Z,16.27
2023-01-25T12:57:43.122Z,14.67
2023-01-25T13:00:22.575Z,19.40
2023-01-25T13:03:09.464Z,18.87
2023-01-25T13:05:45.836Z,15.33
2023-01-25T13:08:31.706Z,17.80
2023-01-25T13:11:09.944Z,15.40
2023-01-25T13:13:38.240Z,21.57
2023-01-25T13:16:32.776Z,20.00
2023-01-25T13:19:01.317Z,20.80
2023-01-25T13:21:45.451Z,17.23
2023-01-25T13:24:19.994Z,19.13
2023-01-25T13:26:50.914Z,18.43
2023-01-25T13:29:48.167Z,18.00
2023-01-25T13:35:59.130Z,16.67
2023-01-25T13:38:32.642Z,14.73
2023-01-25T13:41:10.784Z,27.50
2023-01-25T13:43:40.566Z,15.83
2023-01-25T13:46:12.504Z,14.37
2023-01-25T13:48:50.203Z,18.00
2023-01-25T13:51:20.792Z,19.13
2023-01-25T13:53:59.839Z,19.20
2023-01-25T13:56:31.690Z,16.40
2023-01-25T13:59:00.571Z,20.07
2023-01-25T14:01:30.477Z,17.27
2023-01-25T14:04:02.152Z,15.00
2023-01-25T14:06:34.115Z,16.47
2023-01-25T14:09:07.686Z,13.47
2023-01-25T14:11:39.994Z,13.03
2023-01-25T14:14:20.877Z,13.60
2023-01-25T14:17:03.026Z,13.97
2023-01-25T14:19:32.392Z,15.63
2023-01-25T14:22:25.769Z,14.40
2023-01-25T14:25:11.170Z,12.80
2023-01-25T14:27:45.971Z,12.47
2023-01-25T14:30:20.554Z,11.43
2023-01-25T14:32:50.076Z,12.57
2023-01-25T14:35:54.160Z,13.13
2023-01-25T14:38:29.205Z,11.57
2023-01-25T14:41:00.585Z,11.80
2023-01-25T14:43:29.661Z,17.13
2023-01-25T14:53:45.211Z,13.93
2023-01-25T14:56:24.775Z,12.43
2023-01-25T14:58:59.595Z,11.47
2023-01-25T15:01:33.246Z,15.17
2023-01-25T15:04:01.742Z,15.80
2023-01-25T15:06:30.000Z,16.00
2023-01-25T15:08:59.780Z,13.77
2023-01-25T15:11:38.807Z,13.93
2023-01-25T15:14:18.441Z,10.30
2023-01-25T15:16:47.040Z,9.23
2023-01-25T15:19:26.920Z,11.93
2023-01-25T15:21:57.246Z,12.23
2023-01-25T15:24:27.413Z,11.20
2023-01-25T15:26:56.984Z,9.27
2023-01-25T15:29:27.207Z,10.70
2023-01-25T15:31:57.462Z,9.97
2023-01-25T15:34:30.595Z,9.60
2023-01-25T15:36:58.892Z,12.17
2023-01-25T15:39:30.091Z,11.73
2023-01-25T15:41:58.399Z,10.37
2023-01-25T15:44:26.755Z,13.40
2023-01-25T15:46:55.255Z,10.93
2023-01-25T15:49:27.419Z,9.67
2023-01-25T15:51:56.315Z,8.07
2023-01-25T15:54:24.956Z,8.60
2023-01-25T15:56:58.763Z,12.37
2023-01-25T15:59:27.288Z,10.77
2023-01-25T16:01:55.607Z,12.30
2023-01-25T16:04:25.369Z,11.70
2023-01-25T16:06:55.426Z,11.77
2023-01-25T16:09:25.554Z,9.77
2023-01-25T16:11:56.825Z,14.00
2023-01-25T16:14:29.276Z,13.13
2023-01-25T16:16:59.510Z,10.03
2023-01-25T16:19:27.898Z,16.93
2023-01-25T16:21:56.186Z,14.07
2023-01-25T16:24:24.761Z,11.33
2023-01-25T16:26:59.291Z,12.07
2023-01-25T16:29:27.870Z,16.83
2023-01-25T16:31:56.623Z,12.37
2023-01-25T16:34:25.159Z,11.37
2023-01-25T16:36:53.462Z,13.17
2023-01-25T16:39:23.562Z,9.07
2023-01-25T16:41:51.991Z,10.33
2023-01-25T16:44:21.824Z,11.60
2023-01-25T16:46:50.589Z,10.13
2023-01-25T16:49:22.240Z,11.47
2023-01-25T16:51:50.944Z,10.30
2023-01-25T16:54:20.659Z,10.80
2023-01-25T16:56:49.668Z,13.13
2023-01-25T16:59:18.839Z,13.80
2023-01-25T17:01:48.599Z,10.10
2023-01-25T17:04:17.096Z,9.90
2023-01-25T17:06:47.151Z,12.60
2023-01-25T17:09:24.899Z,11.27
2023-01-25T17:11:53.818Z,12.10
2023-01-25T17:14:23.096Z,14.73
2023-01-25T17:16:53.734Z,9.10
2023-01-25T17:19:22.234Z,17.07
2023-01-25T17:21:50.582Z,11.03
2023-01-25T17:24:21.679Z,12.83
2023-01-25T17:26:50.474Z,9.80
2023-01-25T17:29:18.793Z,8.40
2023-01-25T17:31:47.041Z,11.30
2023-01-25T17:34:19.571Z,11.50
2023-01-25T17:36:47.927Z,12.20
2023-01-25T17:39:17.370Z,8.80
2023-01-25T17:41:46.327Z,11.33
2023-01-25T17:44:15.468Z,10.57
2023-01-25T17:46:43.716Z,11.20
2023-01-25T17:49:14.219Z,10.63
2023-01-25T17:51:44.271Z,7.83
2023-01-25T17:54:13.528Z,14.70
2023-01-25T17:56:42.008Z,10.77
2023-01-25T17:59:11.737Z,7.97
2023-01-25T18:01:42.953Z,11.90
2023-01-25T18:04:13.364Z,9.50
2023-01-25T18:06:43.191Z,8.93
2023-01-25T18:09:11.828Z,9.27
2023-01-25T18:11:41.271Z,11.37
2023-01-25T18:14:12.912Z,7.60
2023-01-25T18:16:42.249Z,8.83
2023-01-25T18:19:11.689Z,10.13
2023-01-25T18:21:42.165Z,8.47
2023-01-25T18:24:26.132Z,13.23
2023-01-25T18:26:59.901Z,10.27
2023-01-25T18:29:41.203Z,11.93
2023-01-25T18:32:09.564Z,14.17
2023-01-25T18:34:37.896Z,12.73
2023-01-25T18:37:20.566Z,9.80
2023-01-25T18:39:51.825Z,9.80
2023-01-25T18:42:20.865Z,9.83
2023-01-25T18:44:49.404Z,13.83
2023-01-25T18:47:18.672Z,11.73
2023-01-25T18:49:47.843Z,11.53
2023-01-25T18:52:16.754Z,10.20
2023-01-25T18:54:45.318Z,10.07
2023-01-25T18:57:15.195Z,10.80
2023-01-25T18:59:43.790Z,9.90
2023-01-25T19:02:13.891Z,11.70
2023-01-25T19:04:42.613Z,10.90
2023-01-25T19:07:10.895Z,11.83
2023-01-25T19:09:39.227Z,9.07
2023-01-25T19:12:07.828Z,10.53
2023-01-25T19:14:37.496Z,11.87
2023-01-25T19:17:07.607Z,10.17
2023-01-25T19:19:35.990Z,12.33
2023-01-25T19:22:05.719Z,11.13
2023-01-25T19:24:34.497Z,12.27
2023-01-25T19:27:03.037Z,13.23
2023-01-25T19:29:31.329Z,9.00
2023-01-25T19:32:01.519Z,10.87
2023-01-25T19:34:29.782Z,9.90
2023-01-25T19:36:58.555Z,13.80
2023-01-25T19:39:26.808Z,11.87
2023-01-25T19:41:55.506Z,15.07
2023-01-25T19:44:24.975Z,11.77
2023-01-25T19:46:53.231Z,9.90
2023-01-25T19:49:23.876Z,12.00
2023-01-25T19:51:54.046Z,10.90
2023-01-25T19:54:24.290Z,11.90
2023-01-25T19:56:52.665Z,13.60
2023-01-25T19:59:22.290Z,9.20
2023-01-25T20:01:50.792Z,8.47
2023-01-25T20:04:20.963Z,7.57
2023-01-25T20:06:51.797Z,8.90
2023-01-25T20:09:24.984Z,11.23
2023-01-25T20:11:55.452Z,11.07
2023-01-25T20:14:23.779Z,9.43
2023-01-25T20:16:52.989Z,11.10
2023-01-25T20:19:21.569Z,7.57
2023-01-25T20:21:51.201Z,9.50
2023-01-25T20:24:19.539Z,8.70
2023-01-25T20:26:47.907Z,8.10
2023-01-25T20:29:16.341Z,9.93
2023-01-25T20:31:47.067Z,13.23
2023-01-25T20:34:18.470Z,12.40
2023-01-25T20:36:47.466Z,8.50
2023-01-25T20:39:19.421Z,9.93
2023-01-25T20:41:48.370Z,8.90
2023-01-25T20:44:18.720Z,8.00
2023-01-25T20:46:47.129Z,9.70
2023-01-25T20:49:17.318Z,9.00
2023-01-25T20:51:45.795Z,8.33
2023-01-25T20:54:14.394Z,10.60
2023-01-25T20:56:47.842Z,6.70
2023-01-25T20:59:17.840Z,8.97
2023-01-25T21:01:46.857Z,6.07
2023-01-25T21:04:15.222Z,4.63
2023-01-25T21:06:43.901Z,8.83
2023-01-25T21:09:13.526Z,9.00
2023-01-25T21:11:43.225Z,8.77
2023-01-25T21:14:11.587Z,8.23
2023-01-25T21:16:40.010Z,9.37
2023-01-25T21:19:08.751Z,8.53
2023-01-25T21:21:38.325Z,10.40
2023-01-25T21:24:07.495Z,7.40
2023-01-25T21:26:38.504Z,33.53
2023-01-25T21:29:08.772Z,11.53
2023-01-25T21:31:39.220Z,8.10
2023-01-25T21:34:09.305Z,7.77
2023-01-25T21:36:37.837Z,8.40
2023-01-25T21:39:06.195Z,7.30
2023-01-25T21:41:34.662Z,8.37
2023-01-25T21:44:20.752Z,6.90
2023-01-25T21:49:56.249Z,6.57
2023-01-25T21:52:24.502Z,7.53
2023-01-25T21:54:52.736Z,11.20
2023-01-25T21:57:21.362Z,10.27
2023-01-25T21:59:50.944Z,9.83
2023-01-25T22:02:21.650Z,6.47
2023-01-25T22:04:50.040Z,8.17
2023-01-25T22:07:18.318Z,7.90
2023-01-25T22:09:46.539Z,7.40
2023-01-25T22:12:14.821Z,6.30
2023-01-25T22:14:43.030Z,7.80
2023-01-25T22:17:11.359Z,6.93
2023-01-25T22:19:41.044Z,7.90
2023-01-25T22:22:09.329Z,7.37
2023-01-25T22:24:37.627Z,7.80
2023-01-25T22:27:38.668Z,10.17
2023-01-25T22:30:08.226Z,7.37
2023-01-25T22:32:36.618Z,7.77
2023-01-25T22:35:06.926Z,10.27
2023-01-25T22:37:38.095Z,7.43
2023-01-25T22:40:08.430Z,8.27
2023-01-25T22:42:36.889Z,7.50
2023-01-25T22:45:05.810Z,8.30
2023-01-25T22:47:34.007Z,10.27
2023-01-25T22:50:02.241Z,9.80
2023-01-25T22:52:31.857Z,7.57
2023-01-25T22:55:00.115Z,9.80
2023-01-25T22:57:28.426Z,8.40
2023-01-25T22:59:56.659Z,9.90
2023-01-25T23:02:24.892Z,7.37
2023-01-25T23:04:53.188Z,7.63
2023-01-25T23:07:21.511Z,9.07
2023-01-25T23:09:51.732Z,9.93
2023-01-25T23:12:20.095Z,8.97
2023-01-25T23:14:51.549Z,11.87
2023-01-25T23:17:38.668Z,10.83
2023-01-25T23:20:08.541Z,10.73
2023-01-25T23:22:36.903Z,9.97
2023-01-25T23:25:08.544Z,8.87
2023-01-25T23:27:36.829Z,8.17
2023-01-25T23:30:07.301Z,7.50
2023-01-25T23:32:35.617Z,6.30
2023-01-25T23:35:03.905Z,10.03
2023-01-25T23:37:32.155Z,6.63
2023-01-25T23:40:00.409Z,8.53
2023-01-25T23:42:30.052Z,8.37
2023-01-25T23:44:58.289Z,11.50
2023-01-25T23:47:26.482Z,9.37
2023-01-25T23:49:54.713Z,7.17
2023-01-25T23:52:23.566Z,6.73
2023-01-25T23:54:51.813Z,6.93
2023-01-25T23:57:20.304Z,7.23
2023-01-25T23:59:49.915Z,7.43
